sensor_id;sensor_type;location;lat;lon;timestamp;temperature;humidity
10901;DHT22;5503;53.208;10.392;2023-01-04T00:01:36;7.50;1.00
10901;DHT22;5503;53.208;10.392;2023-01-04T00:04:03;7.50;1.00
10901;DHT22;5503;53.208;10.392;2023-01-04T00:06:30;7.40;1.00
10901;DHT22;5503;53.208;10.392;2023-01-04T00:08:57;7.50;1.00
10901;DHT22;5503;53.208;10.392;2023-01-04T00:11:24;7.60;1.00
10901;DHT22;5503;53.208;10.392;2023-01-04T00:13:52;7.30;1.00
10901;DHT22;5503;53.208;10.392;2023-01-04T00:16:25;7.40;1.00
10901;DHT22;5503;53.208;10.392;2023-01-04T00:18:53;9.60;1.00
10901;DHT22;5503;53.208;10.392;2023-01-04T00:21:21;7.40;1.00
10901;DHT22;5503;53.208;10.392;2023-01-04T00:23:51;7.20;1.00
10901;DHT22;5503;53.208;10.392;2023-01-04T00:26:19;7.30;1.00
10901;DHT22;5503;53.208;10.392;2023-01-04T00:28:47;7.50;1.00
10901;DHT22;5503;53.208;10.392;2023-01-04T00:31:14;7.40;1.00
10901;DHT22;5503;53.208;10.392;2023-01-04T00:33:43;7.60;1.00
10901;DHT22;5503;53.208;10.392;2023-01-04T00:36:12;7.50;1.00
10901;DHT22;5503;53.208;10.392;2023-01-04T00:38:40;7.50;1.00
10901;DHT22;5503;53.208;10.392;2023-01-04T00:41:09;7.90;1.00
10901;DHT22;5503;53.208;10.392;2023-01-04T00:43:36;7.50;1.00
10901;DHT22;5503;53.208;10.392;2023-01-04T00:46:03;10.10;1.00
10901;DHT22;5503;53.208;10.392;2023-01-04T00:48:31;7.60;1.00
10901;DHT22;5503;53.208;10.392;2023-01-04T00:50:59;7.40;1.00
10901;DHT22;5503;53.208;10.392;2023-01-04T00:53:26;7.40;1.00
10901;DHT22;5503;53.208;10.392;2023-01-04T00:55:58;7.60;1.00
10901;DHT22;5503;53.208;10.392;2023-01-04T00:58:26;7.40;1.00
10901;DHT22;5503;53.208;10.392;2023-01-04T01:00:52;7.40;1.00
10901;DHT22;5503;53.208;10.392;2023-01-04T01:03:19;7.30;1.00
10901;DHT22;5503;53.208;10.392;2023-01-04T01:05:46;7.30;1.00
10901;DHT22;5503;53.208;10.392;2023-01-04T01:08:14;7.60;1.00
10901;DHT22;5503;53.208;10.392;2023-01-04T01:10:50;7.50;1.00
10901;DHT22;5503;53.208;10.392;2023-01-04T01:13:18;7.40;1.00
10901;DHT22;5503;53.208;10.392;2023-01-04T01:15:45;7.40;1.00
10901;DHT22;5503;53.208;10.392;2023-01-04T01:18:12;7.40;1.00
10901;DHT22;5503;53.208;10.392;2023-01-04T01:20:42;7.50;1.00
10901;DHT22;5503;53.208;10.392;2023-01-04T01:23:11;7.50;1.00
10901;DHT22;5503;53.208;10.392;2023-01-04T01:25:40;7.40;1.00
10901;DHT22;5503;53.208;10.392;2023-01-04T01:28:08;7.30;1.00
10901;DHT22;5503;53.208;10.392;2023-01-04T01:30:38;7.30;1.00
10901;DHT22;5503;53.208;10.392;2023-01-04T01:33:06;7.30;1.00
10901;DHT22;5503;53.208;10.392;2023-01-04T01:35:33;7.40;1.00
10901;DHT22;5503;53.208;10.392;2023-01-04T01:38:01;5.40;1.00
10901;DHT22;5503;53.208;10.392;2023-01-04T01:40:28;7.50;1.00
10901;DHT22;5503;53.208;10.392;2023-01-04T01:42:56;7.60;99.90
10901;DHT22;5503;53.208;10.392;2023-01-04T01:45:31;10.70;99.90
10901;DHT22;5503;53.208;10.392;2023-01-04T01:48:03;7.50;99.90
10901;DHT22;5503;53.208;10.392;2023-01-04T01:50:33;7.50;99.90
10901;DHT22;5503;53.208;10.392;2023-01-04T01:53:02;7.50;99.90
10901;DHT22;5503;53.208;10.392;2023-01-04T01:55:32;7.40;99.90
10901;DHT22;5503;53.208;10.392;2023-01-04T01:58:02;7.30;99.90
10901;DHT22;5503;53.208;10.392;2023-01-04T02:00:30;7.50;99.90
10901;DHT22;5503;53.208;10.392;2023-01-04T02:03:05;7.40;99.90
10901;DHT22;5503;53.208;10.392;2023-01-04T02:05:35;5.20;99.90
10901;DHT22;5503;53.208;10.392;2023-01-04T02:08:03;7.50;99.90
10901;DHT22;5503;53.208;10.392;2023-01-04T02:13:10;7.40;99.90
10901;DHT22;5503;53.208;10.392;2023-01-04T02:15:50;7.40;99.90
10901;DHT22;5503;53.208;10.392;2023-01-04T02:18:24;7.50;99.90
10901;DHT22;5503;53.208;10.392;2023-01-04T02:20:55;7.50;99.90
10901;DHT22;5503;53.208;10.392;2023-01-04T02:24:14;7.60;99.90
10901;DHT22;5503;53.208;10.392;2023-01-04T02:33:04;7.40;99.90
10901;DHT22;5503;53.208;10.392;2023-01-04T02:35:42;7.50;99.90
10901;DHT22;5503;53.208;10.392;2023-01-04T02:38:15;7.40;99.90
10901;DHT22;5503;53.208;10.392;2023-01-04T02:40:51;7.40;99.90
10901;DHT22;5503;53.208;10.392;2023-01-04T02:43:24;7.40;99.90
10901;DHT22;5503;53.208;10.392;2023-01-04T02:46:13;7.30;99.90
10901;DHT22;5503;53.208;10.392;2023-01-04T02:48:42;7.40;99.90
10901;DHT22;5503;53.208;10.392;2023-01-04T02:51:29;7.40;99.90
10901;DHT22;5503;53.208;10.392;2023-01-04T02:53:57;7.50;79.40
10901;DHT22;5503;53.208;10.392;2023-01-04T02:56:36;7.50;94.00
10901;DHT22;5503;53.208;10.392;2023-01-04T02:59:27;7.50;1.00
10901;DHT22;5503;53.208;10.392;2023-01-04T03:02:08;7.50;1.00
10901;DHT22;5503;53.208;10.392;2023-01-04T03:05:03;7.50;1.00
10901;DHT22;5503;53.208;10.392;2023-01-04T03:07:53;10.80;1.00
10901;DHT22;5503;53.208;10.392;2023-01-04T03:10:27;7.50;1.00
10901;DHT22;5503;53.208;10.392;2023-01-04T03:13:02;7.60;1.00
10901;DHT22;5503;53.208;10.392;2023-01-04T03:15:33;7.40;1.00
10901;DHT22;5503;53.208;10.392;2023-01-04T03:18:12;7.50;1.00
10901;DHT22;5503;53.208;10.392;2023-01-04T03:20:43;7.70;1.00
10901;DHT22;5503;53.208;10.392;2023-01-04T03:23:15;7.60;1.00
10901;DHT22;5503;53.208;10.392;2023-01-04T03:26:18;7.50;1.00
10901;DHT22;5503;53.208;10.392;2023-01-04T03:29:08;7.70;99.90
10901;DHT22;5503;53.208;10.392;2023-01-04T03:31:57;7.70;99.90
10901;DHT22;5503;53.208;10.392;2023-01-04T03:34:45;7.70;99.90
10901;DHT22;5503;53.208;10.392;2023-01-04T03:37:36;7.60;1.00
10901;DHT22;5503;53.208;10.392;2023-01-04T03:40:16;7.80;1.00
10901;DHT22;5503;53.208;10.392;2023-01-04T03:43:06;7.60;1.00
10901;DHT22;5503;53.208;10.392;2023-01-04T03:45:56;7.60;1.00
10901;DHT22;5503;53.208;10.392;2023-01-04T03:48:49;7.70;1.00
10901;DHT22;5503;53.208;10.392;2023-01-04T03:51:21;7.70;99.90
10901;DHT22;5503;53.208;10.392;2023-01-04T03:53:55;7.80;26.20
10901;DHT22;5503;53.208;10.392;2023-01-04T03:56:25;7.80;99.90
10901;DHT22;5503;53.208;10.392;2023-01-04T03:58:54;7.70;1.00
10901;DHT22;5503;53.208;10.392;2023-01-04T04:01:23;7.70;1.00
10901;DHT22;5503;53.208;10.392;2023-01-04T04:03:51;9.10;99.90
10901;DHT22;5503;53.208;10.392;2023-01-04T04:06:35;7.90;99.90
10901;DHT22;5503;53.208;10.392;2023-01-04T04:09:21;8.00;99.90
10901;DHT22;5503;53.208;10.392;2023-01-04T04:11:48;8.30;1.00
10901;DHT22;5503;53.208;10.392;2023-01-04T04:14:15;7.90;1.00
10901;DHT22;5503;53.208;10.392;2023-01-04T04:16:42;8.10;1.00
10901;DHT22;5503;53.208;10.392;2023-01-04T04:19:09;8.00;1.00
10901;DHT22;5503;53.208;10.392;2023-01-04T04:21:36;7.90;1.00
10901;DHT22;5503;53.208;10.392;2023-01-04T04:24:03;7.80;99.90
10901;DHT22;5503;53.208;10.392;2023-01-04T04:26:32;7.60;99.90
10901;DHT22;5503;53.208;10.392;2023-01-04T04:28:59;7.50;1.00
10901;DHT22;5503;53.208;10.392;2023-01-04T04:31:26;7.50;1.00
10901;DHT22;5503;53.208;10.392;2023-01-04T04:33:53;7.40;1.00
10901;DHT22;5503;53.208;10.392;2023-01-04T04:36:20;7.40;1.00
10901;DHT22;5503;53.208;10.392;2023-01-04T04:38:46;7.60;1.00
10901;DHT22;5503;53.208;10.392;2023-01-04T04:41:13;7.50;1.00
10901;DHT22;5503;53.208;10.392;2023-01-04T04:43:59;7.40;1.00
10901;DHT22;5503;53.208;10.392;2023-01-04T04:46:26;7.40;1.00
10901;DHT22;5503;53.208;10.392;2023-01-04T04:48:53;7.50;1.00
10901;DHT22;5503;53.208;10.392;2023-01-04T04:51:20;7.50;1.00
10901;DHT22;5503;53.208;10.392;2023-01-04T04:53:48;7.50;1.00
10901;DHT22;5503;53.208;10.392;2023-01-04T04:56:15;7.60;1.00
10901;DHT22;5503;53.208;10.392;2023-01-04T04:58:42;7.50;1.00
10901;DHT22;5503;53.208;10.392;2023-01-04T05:01:10;7.30;1.00
10901;DHT22;5503;53.208;10.392;2023-01-04T05:03:37;7.40;1.00
10901;DHT22;5503;53.208;10.392;2023-01-04T05:06:04;7.40;1.00
10901;DHT22;5503;53.208;10.392;2023-01-04T05:08:32;7.20;1.00
10901;DHT22;5503;53.208;10.392;2023-01-04T05:11:03;7.20;1.00
10901;DHT22;5503;53.208;10.392;2023-01-04T05:13:30;7.30;1.00
10901;DHT22;5503;53.208;10.392;2023-01-04T05:15:56;4.50;1.00
10901;DHT22;5503;53.208;10.392;2023-01-04T05:18:24;7.20;1.00
10901;DHT22;5503;53.208;10.392;2023-01-04T05:20:51;7.10;1.00
10901;DHT22;5503;53.208;10.392;2023-01-04T05:23:20;7.20;1.00
10901;DHT22;5503;53.208;10.392;2023-01-04T05:25:50;5.60;1.00
10901;DHT22;5503;53.208;10.392;2023-01-04T05:28:18;7.20;1.00
10901;DHT22;5503;53.208;10.392;2023-01-04T05:30:48;9.50;1.00
10901;DHT22;5503;53.208;10.392;2023-01-04T05:33:19;7.00;22.60
10901;DHT22;5503;53.208;10.392;2023-01-04T05:35:48;7.10;24.90
10901;DHT22;5503;53.208;10.392;2023-01-04T05:38:16;7.10;21.70
10901;DHT22;5503;53.208;10.392;2023-01-04T05:40:44;7.10;27.20
10901;DHT22;5503;53.208;10.392;2023-01-04T05:43:11;5.90;23.40
10901;DHT22;5503;53.208;10.392;2023-01-04T05:45:39;7.30;4.30
10901;DHT22;5503;53.208;10.392;2023-01-04T05:48:06;7.30;14.10
10901;DHT22;5503;53.208;10.392;2023-01-04T05:50:33;7.20;35.30
10901;DHT22;5503;53.208;10.392;2023-01-04T05:53:02;7.30;59.70
10901;DHT22;5503;53.208;10.392;2023-01-04T05:55:29;7.30;67.90
10901;DHT22;5503;53.208;10.392;2023-01-04T05:57:56;7.30;56.00
10901;DHT22;5503;53.208;10.392;2023-01-04T06:00:23;7.50;28.50
10901;DHT22;5503;53.208;10.392;2023-01-04T06:02:50;7.50;20.50
10901;DHT22;5503;53.208;10.392;2023-01-04T06:05:20;7.60;30.20
10901;DHT22;5503;53.208;10.392;2023-01-04T06:07:47;7.70;6.10
10901;DHT22;5503;53.208;10.392;2023-01-04T06:10:15;7.80;1.00
10901;DHT22;5503;53.208;10.392;2023-01-04T06:12:42;7.90;1.00
10901;DHT22;5503;53.208;10.392;2023-01-04T06:15:10;7.90;1.00
10901;DHT22;5503;53.208;10.392;2023-01-04T06:17:38;7.90;1.00
10901;DHT22;5503;53.208;10.392;2023-01-04T06:20:07;7.90;5.40
10901;DHT22;5503;53.208;10.392;2023-01-04T06:22:35;8.00;1.00
10901;DHT22;5503;53.208;10.392;2023-01-04T06:25:03;7.80;16.30
10901;DHT22;5503;53.208;10.392;2023-01-04T06:27:31;8.00;17.30
10901;DHT22;5503;53.208;10.392;2023-01-04T06:29:58;8.00;11.10
10901;DHT22;5503;53.208;10.392;2023-01-04T06:32:25;8.80;25.20
10901;DHT22;5503;53.208;10.392;2023-01-04T06:34:52;8.10;12.60
10901;DHT22;5503;53.208;10.392;2023-01-04T06:37:19;8.30;1.00
10901;DHT22;5503;53.208;10.392;2023-01-04T06:39:46;8.40;1.00
10901;DHT22;5503;53.208;10.392;2023-01-04T06:42:13;8.40;1.00
10901;DHT22;5503;53.208;10.392;2023-01-04T06:44:55;9.80;1.00
10901;DHT22;5503;53.208;10.392;2023-01-04T06:47:22;8.30;1.00
10901;DHT22;5503;53.208;10.392;2023-01-04T06:49:49;8.30;3.90
10901;DHT22;5503;53.208;10.392;2023-01-04T06:52:16;8.40;5.50
10901;DHT22;5503;53.208;10.392;2023-01-04T06:54:43;8.50;1.00
10901;DHT22;5503;53.208;10.392;2023-01-04T06:57:10;8.50;1.00
10901;DHT22;5503;53.208;10.392;2023-01-04T06:59:37;8.60;1.00
10901;DHT22;5503;53.208;10.392;2023-01-04T07:02:05;10.70;1.00
10901;DHT22;5503;53.208;10.392;2023-01-04T07:04:32;9.80;1.00
10901;DHT22;5503;53.208;10.392;2023-01-04T07:07:00;8.60;1.00
10901;DHT22;5503;53.208;10.392;2023-01-04T07:09:27;8.70;1.00
10901;DHT22;5503;53.208;10.392;2023-01-04T07:11:54;8.70;1.00
10901;DHT22;5503;53.208;10.392;2023-01-04T07:14:22;8.70;1.00
10901;DHT22;5503;53.208;10.392;2023-01-04T07:16:49;9.10;1.00
10901;DHT22;5503;53.208;10.392;2023-01-04T07:19:17;8.70;5.40
10901;DHT22;5503;53.208;10.392;2023-01-04T07:21:44;8.70;12.60
10901;DHT22;5503;53.208;10.392;2023-01-04T07:24:11;8.70;12.70
10901;DHT22;5503;53.208;10.392;2023-01-04T07:26:38;8.80;18.60
10901;DHT22;5503;53.208;10.392;2023-01-04T07:29:05;8.80;9.30
10901;DHT22;5503;53.208;10.392;2023-01-04T07:31:42;8.80;8.60
10901;DHT22;5503;53.208;10.392;2023-01-04T07:34:10;9.00;1.00
10901;DHT22;5503;53.208;10.392;2023-01-04T07:36:38;8.10;2.40
10901;DHT22;5503;53.208;10.392;2023-01-04T07:39:06;8.90;29.70
10901;DHT22;5503;53.208;10.392;2023-01-04T07:41:35;8.90;20.30
10901;DHT22;5503;53.208;10.392;2023-01-04T07:44:02;9.00;22.80
10901;DHT22;5503;53.208;10.392;2023-01-04T07:46:29;9.00;24.70
10901;DHT22;5503;53.208;10.392;2023-01-04T07:48:56;9.00;37.10
10901;DHT22;5503;53.208;10.392;2023-01-04T07:51:23;9.00;31.90
10901;DHT22;5503;53.208;10.392;2023-01-04T07:53:52;9.00;43.10
10901;DHT22;5503;53.208;10.392;2023-01-04T07:56:19;9.10;28.60
10901;DHT22;5503;53.208;10.392;2023-01-04T07:58:46;9.00;56.30
10901;DHT22;5503;53.208;10.392;2023-01-04T08:01:14;8.10;51.60
10901;DHT22;5503;53.208;10.392;2023-01-04T08:03:43;9.20;25.30
10901;DHT22;5503;53.208;10.392;2023-01-04T08:06:11;9.30;28.90
10901;DHT22;5503;53.208;10.392;2023-01-04T08:08:39;9.20;28.80
10901;DHT22;5503;53.208;10.392;2023-01-04T08:11:09;9.20;34.90
10901;DHT22;5503;53.208;10.392;2023-01-04T08:13:37;9.20;56.50
10901;DHT22;5503;53.208;10.392;2023-01-04T08:16:05;9.30;47.00
10901;DHT22;5503;53.208;10.392;2023-01-04T08:18:32;9.40;41.20
10901;DHT22;5503;53.208;10.392;2023-01-04T08:21:03;9.40;50.00
10901;DHT22;5503;53.208;10.392;2023-01-04T08:23:31;9.50;14.60
10901;DHT22;5503;53.208;10.392;2023-01-04T08:26:03;9.50;38.00
10901;DHT22;5503;53.208;10.392;2023-01-04T08:28:31;9.50;41.70
10901;DHT22;5503;53.208;10.392;2023-01-04T08:31:03;9.70;18.60
10901;DHT22;5503;53.208;10.392;2023-01-04T08:33:31;9.60;20.20
10901;DHT22;5503;53.208;10.392;2023-01-04T08:36:06;9.60;60.20
10901;DHT22;5503;53.208;10.392;2023-01-04T08:38:34;9.60;37.90
10901;DHT22;5503;53.208;10.392;2023-01-04T08:41:01;9.70;65.90
10901;DHT22;5503;53.208;10.392;2023-01-04T08:43:28;9.70;43.60
10901;DHT22;5503;53.208;10.392;2023-01-04T08:45:56;7.10;34.60
10901;DHT22;5503;53.208;10.392;2023-01-04T08:48:23;9.80;26.30
10901;DHT22;5503;53.208;10.392;2023-01-04T08:50:50;10.00;58.50
10901;DHT22;5503;53.208;10.392;2023-01-04T08:53:17;10.00;37.80
10901;DHT22;5503;53.208;10.392;2023-01-04T08:55:48;9.90;41.60
10901;DHT22;5503;53.208;10.392;2023-01-04T08:58:15;10.00;30.20
10901;DHT22;5503;53.208;10.392;2023-01-04T09:00:42;10.00;36.30
10901;DHT22;5503;53.208;10.392;2023-01-04T09:03:11;10.00;69.00
10901;DHT22;5503;53.208;10.392;2023-01-04T09:05:39;10.10;56.50
10901;DHT22;5503;53.208;10.392;2023-01-04T09:08:06;10.20;42.50
10901;DHT22;5503;53.208;10.392;2023-01-04T09:10:35;10.30;15.60
10901;DHT22;5503;53.208;10.392;2023-01-04T09:13:03;10.30;20.80
10901;DHT22;5503;53.208;10.392;2023-01-04T09:15:30;10.40;21.70
10901;DHT22;5503;53.208;10.392;2023-01-04T09:17:57;10.30;18.50
10901;DHT22;5503;53.208;10.392;2023-01-04T09:20:25;10.40;20.50
10901;DHT22;5503;53.208;10.392;2023-01-04T09:22:52;10.50;22.70
10901;DHT22;5503;53.208;10.392;2023-01-04T09:25:19;10.50;48.50
10901;DHT22;5503;53.208;10.392;2023-01-04T09:27:46;10.60;30.00
10901;DHT22;5503;53.208;10.392;2023-01-04T09:30:13;10.60;21.40
10901;DHT22;5503;53.208;10.392;2023-01-04T09:32:40;10.50;60.20
10901;DHT22;5503;53.208;10.392;2023-01-04T09:35:08;10.50;71.10
10901;DHT22;5503;53.208;10.392;2023-01-04T09:37:36;10.60;56.70
10901;DHT22;5503;53.208;10.392;2023-01-04T09:40:04;10.70;17.80
10901;DHT22;5503;53.208;10.392;2023-01-04T09:42:34;10.70;24.50
10901;DHT22;5503;53.208;10.392;2023-01-04T09:45:14;10.70;54.10
10901;DHT22;5503;53.208;10.392;2023-01-04T09:47:45;10.70;37.50
10901;DHT22;5503;53.208;10.392;2023-01-04T09:50:17;10.70;50.20
10901;DHT22;5503;53.208;10.392;2023-01-04T09:52:57;10.60;65.50
10901;DHT22;5503;53.208;10.392;2023-01-04T09:55:29;10.70;75.00
10901;DHT22;5503;53.208;10.392;2023-01-04T09:57:59;10.80;58.70
10901;DHT22;5503;53.208;10.392;2023-01-04T10:00:30;10.80;35.90
10901;DHT22;5503;53.208;10.392;2023-01-04T10:03:03;11.00;21.80
10901;DHT22;5503;53.208;10.392;2023-01-04T10:05:33;10.90;30.70
10901;DHT22;5503;53.208;10.392;2023-01-04T10:08:02;12.90;27.70
10901;DHT22;5503;53.208;10.392;2023-01-04T10:10:48;10.90;41.20
10901;DHT22;5503;53.208;10.392;2023-01-04T10:13:28;10.90;52.80
10901;DHT22;5503;53.208;10.392;2023-01-04T10:16:04;10.90;44.30
10901;DHT22;5503;53.208;10.392;2023-01-04T10:18:38;10.90;44.20
10901;DHT22;5503;53.208;10.392;2023-01-04T10:21:25;11.00;46.70
10901;DHT22;5503;53.208;10.392;2023-01-04T10:27:06;11.00;40.90
10901;DHT22;5503;53.208;10.392;2023-01-04T10:29:48;10.90;45.20
10901;DHT22;5503;53.208;10.392;2023-01-04T10:32:21;10.90;61.60
10901;DHT22;5503;53.208;10.392;2023-01-04T10:34:49;11.00;51.10
10901;DHT22;5503;53.208;10.392;2023-01-04T10:37:18;11.00;52.10
10901;DHT22;5503;53.208;10.392;2023-01-04T10:39:50;11.00;26.50
10901;DHT22;5503;53.208;10.392;2023-01-04T10:42:28;11.00;27.70
10901;DHT22;5503;53.208;10.392;2023-01-04T10:45:05;11.00;55.30
10901;DHT22;5503;53.208;10.392;2023-01-04T10:47:36;11.00;56.30
10901;DHT22;5503;53.208;10.392;2023-01-04T10:50:15;11.10;43.40
10901;DHT22;5503;53.208;10.392;2023-01-04T10:52:48;11.10;45.80
10901;DHT22;5503;53.208;10.392;2023-01-04T10:55:23;11.00;51.00
10901;DHT22;5503;53.208;10.392;2023-01-04T10:57:56;11.10;41.90
10901;DHT22;5503;53.208;10.392;2023-01-04T11:00:27;11.10;30.70
10901;DHT22;5503;53.208;10.392;2023-01-04T11:02:59;11.10;57.60
10901;DHT22;5503;53.208;10.392;2023-01-04T11:05:31;11.20;28.40
10901;DHT22;5503;53.208;10.392;2023-01-04T11:08:02;11.10;52.00
10901;DHT22;5503;53.208;10.392;2023-01-04T11:10:36;11.10;72.00
10901;DHT22;5503;53.208;10.392;2023-01-04T11:13:06;11.20;53.30
10901;DHT22;5503;53.208;10.392;2023-01-04T11:15:34;11.20;61.80
10901;DHT22;5503;53.208;10.392;2023-01-04T11:18:03;11.20;64.60
10901;DHT22;5503;53.208;10.392;2023-01-04T11:20:31;11.30;58.10
10901;DHT22;5503;53.208;10.392;2023-01-04T11:23:01;11.30;50.20
10901;DHT22;5503;53.208;10.392;2023-01-04T11:25:34;11.50;25.10
10901;DHT22;5503;53.208;10.392;2023-01-04T11:28:11;11.40;27.10
10901;DHT22;5503;53.208;10.392;2023-01-04T11:30:49;11.40;22.50
10901;DHT22;5503;53.208;10.392;2023-01-04T11:33:19;9.80;25.10
10901;DHT22;5503;53.208;10.392;2023-01-04T11:35:47;11.40;32.80
10901;DHT22;5503;53.208;10.392;2023-01-04T11:38:16;11.40;25.50
10901;DHT22;5503;53.208;10.392;2023-01-04T11:41:00;11.50;19.10
10901;DHT22;5503;53.208;10.392;2023-01-04T11:43:31;11.40;27.80
10901;DHT22;5503;53.208;10.392;2023-01-04T11:46:01;11.30;37.40
10901;DHT22;5503;53.208;10.392;2023-01-04T11:48:34;11.40;59.00
10901;DHT22;5503;53.208;10.392;2023-01-04T11:51:03;11.40;35.00
10901;DHT22;5503;53.208;10.392;2023-01-04T11:53:32;11.50;25.20
10901;DHT22;5503;53.208;10.392;2023-01-04T11:56:16;11.40;32.30
10901;DHT22;5503;53.208;10.392;2023-01-04T11:58:44;11.40;33.50
10901;DHT22;5503;53.208;10.392;2023-01-04T12:01:28;11.40;42.40
10901;DHT22;5503;53.208;10.392;2023-01-04T12:03:55;11.40;28.30
10901;DHT22;5503;53.208;10.392;2023-01-04T12:06:31;11.60;18.20
10901;DHT22;5503;53.208;10.392;2023-01-04T12:08:59;11.60;13.70
10901;DHT22;5503;53.208;10.392;2023-01-04T12:11:29;11.50;17.40
10901;DHT22;5503;53.208;10.392;2023-01-04T12:13:57;11.50;26.90
10901;DHT22;5503;53.208;10.392;2023-01-04T12:16:37;11.70;1.90
10901;DHT22;5503;53.208;10.392;2023-01-04T12:19:10;11.60;9.70
10901;DHT22;5503;53.208;10.392;2023-01-04T12:21:42;11.70;3.00
10901;DHT22;5503;53.208;10.392;2023-01-04T12:24:15;9.90;14.20
10901;DHT22;5503;53.208;10.392;2023-01-04T12:26:45;11.60;21.70
10901;DHT22;5503;53.208;10.392;2023-01-04T12:29:32;11.70;14.50
10901;DHT22;5503;53.208;10.392;2023-01-04T12:32:38;11.70;6.90
10901;DHT22;5503;53.208;10.392;2023-01-04T12:38:08;11.60;53.50
10901;DHT22;5503;53.208;10.392;2023-01-04T12:40:52;11.70;20.40
10901;DHT22;5503;53.208;10.392;2023-01-04T12:43:25;11.70;25.60
10901;DHT22;5503;53.208;10.392;2023-01-04T12:49:42;11.70;46.90
10901;DHT22;5503;53.208;10.392;2023-01-04T12:52:38;11.70;43.40
10901;DHT22;5503;53.208;10.392;2023-01-04T12:55:49;11.80;21.40
10901;DHT22;5503;53.208;10.392;2023-01-04T12:58:43;11.80;28.40
10901;DHT22;5503;53.208;10.392;2023-01-04T13:01:30;11.70;41.30
10901;DHT22;5503;53.208;10.392;2023-01-04T13:04:00;11.70;58.60
10901;DHT22;5503;53.208;10.392;2023-01-04T13:06:28;11.80;21.90
10901;DHT22;5503;53.208;10.392;2023-01-04T13:08:57;11.90;20.50
10901;DHT22;5503;53.208;10.392;2023-01-04T13:11:53;12.00;15.70
10901;DHT22;5503;53.208;10.392;2023-01-04T13:14:32;13.30;16.90
10901;DHT22;5503;53.208;10.392;2023-01-04T13:17:12;11.90;38.60
10901;DHT22;5503;53.208;10.392;2023-01-04T13:19:40;11.90;34.20
10901;DHT22;5503;53.208;10.392;2023-01-04T13:22:18;12.00;22.10
10901;DHT22;5503;53.208;10.392;2023-01-04T13:24:46;11.90;9.40
10901;DHT22;5503;53.208;10.392;2023-01-04T13:27:16;14.20;8.00
10901;DHT22;5503;53.208;10.392;2023-01-04T13:29:46;12.00;23.30
10901;DHT22;5503;53.208;10.392;2023-01-04T13:32:18;12.00;34.40
10901;DHT22;5503;53.208;10.392;2023-01-04T13:34:50;12.00;23.70
10901;DHT22;5503;53.208;10.392;2023-01-04T13:37:28;12.00;25.10
10901;DHT22;5503;53.208;10.392;2023-01-04T13:43:17;12.10;4.60
10901;DHT22;5503;53.208;10.392;2023-01-04T13:46:00;12.30;1.00
10901;DHT22;5503;53.208;10.392;2023-01-04T13:48:36;12.40;1.00
10901;DHT22;5503;53.208;10.392;2023-01-04T13:51:04;12.40;1.00
10901;DHT22;5503;53.208;10.392;2023-01-04T13:53:38;12.30;1.00
10901;DHT22;5503;53.208;10.392;2023-01-04T13:56:13;12.20;6.20
10901;DHT22;5503;53.208;10.392;2023-01-04T13:58:42;12.30;1.00
10901;DHT22;5503;53.208;10.392;2023-01-04T14:01:16;12.40;1.00
10901;DHT22;5503;53.208;10.392;2023-01-04T14:03:46;12.30;1.00
10901;DHT22;5503;53.208;10.392;2023-01-04T14:06:18;10.90;1.00
10901;DHT22;5503;53.208;10.392;2023-01-04T14:08:51;12.30;1.00
10901;DHT22;5503;53.208;10.392;2023-01-04T14:11:22;12.40;1.00
10901;DHT22;5503;53.208;10.392;2023-01-04T14:14:31;12.30;1.00
10901;DHT22;5503;53.208;10.392;2023-01-04T14:17:22;12.30;14.10
10901;DHT22;5503;53.208;10.392;2023-01-04T14:19:53;12.20;21.20
10901;DHT22;5503;53.208;10.392;2023-01-04T14:22:26;12.30;30.20
10901;DHT22;5503;53.208;10.392;2023-01-04T14:24:55;12.40;10.00
10901;DHT22;5503;53.208;10.392;2023-01-04T14:27:31;14.50;3.70
10901;DHT22;5503;53.208;10.392;2023-01-04T14:29:59;12.40;1.00
10901;DHT22;5503;53.208;10.392;2023-01-04T14:32:28;12.40;1.00
10901;DHT22;5503;53.208;10.392;2023-01-04T14:34:55;12.40;16.50
10901;DHT22;5503;53.208;10.392;2023-01-04T14:37:22;12.30;17.70
10901;DHT22;5503;53.208;10.392;2023-01-04T14:39:49;12.40;20.00
10901;DHT22;5503;53.208;10.392;2023-01-04T14:42:24;12.90;21.40
10901;DHT22;5503;53.208;10.392;2023-01-04T14:44:51;12.50;4.70
10901;DHT22;5503;53.208;10.392;2023-01-04T14:47:18;12.50;1.00
10901;DHT22;5503;53.208;10.392;2023-01-04T14:49:47;15.00;1.00
10901;DHT22;5503;53.208;10.392;2023-01-04T14:52:20;12.50;1.00
10901;DHT22;5503;53.208;10.392;2023-01-04T14:54:48;12.50;1.00
10901;DHT22;5503;53.208;10.392;2023-01-04T14:57:15;12.50;12.80
10901;DHT22;5503;53.208;10.392;2023-01-04T14:59:42;12.60;4.80
10901;DHT22;5503;53.208;10.392;2023-01-04T15:02:11;12.50;1.00
10901;DHT22;5503;53.208;10.392;2023-01-04T15:04:38;12.60;1.00
10901;DHT22;5503;53.208;10.392;2023-01-04T15:09:48;12.50;1.00
10901;DHT22;5503;53.208;10.392;2023-01-04T15:12:15;14.40;1.00
10901;DHT22;5503;53.208;10.392;2023-01-04T15:14:42;12.50;1.00
10901;DHT22;5503;53.208;10.392;2023-01-04T15:17:09;12.60;1.00
10901;DHT22;5503;53.208;10.392;2023-01-04T15:19:37;12.80;1.00
10901;DHT22;5503;53.208;10.392;2023-01-04T15:22:03;12.80;1.00
10901;DHT22;5503;53.208;10.392;2023-01-04T15:24:32;12.70;1.00
10901;DHT22;5503;53.208;10.392;2023-01-04T15:26:59;12.60;1.00
10901;DHT22;5503;53.208;10.392;2023-01-04T15:29:26;12.60;1.00
10901;DHT22;5503;53.208;10.392;2023-01-04T15:31:53;12.70;1.00
10901;DHT22;5503;53.208;10.392;2023-01-04T15:34:20;12.70;1.00
10901;DHT22;5503;53.208;10.392;2023-01-04T15:36:49;12.70;1.00
10901;DHT22;5503;53.208;10.392;2023-01-04T15:39:17;12.70;1.00
10901;DHT22;5503;53.208;10.392;2023-01-04T15:41:45;13.20;1.00
10901;DHT22;5503;53.208;10.392;2023-01-04T15:44:29;12.50;1.00
10901;DHT22;5503;53.208;10.392;2023-01-04T15:46:56;12.40;1.00
10901;DHT22;5503;53.208;10.392;2023-01-04T15:49:24;12.30;1.00
10901;DHT22;5503;53.208;10.392;2023-01-04T15:51:51;12.40;1.00
10901;DHT22;5503;53.208;10.392;2023-01-04T15:54:18;12.30;1.00
10901;DHT22;5503;53.208;10.392;2023-01-04T15:56:47;12.40;1.00
10901;DHT22;5503;53.208;10.392;2023-01-04T15:59:14;12.40;1.00
10901;DHT22;5503;53.208;10.392;2023-01-04T16:01:41;12.40;1.00
10901;DHT22;5503;53.208;10.392;2023-01-04T16:04:09;12.40;1.00
10901;DHT22;5503;53.208;10.392;2023-01-04T16:06:37;12.50;1.00
10901;DHT22;5503;53.208;10.392;2023-01-04T16:09:04;12.60;1.00
10901;DHT22;5503;53.208;10.392;2023-01-04T16:11:32;12.70;1.00
10901;DHT22;5503;53.208;10.392;2023-01-04T16:14:01;12.60;1.00
10901;DHT22;5503;53.208;10.392;2023-01-04T16:16:28;12.60;1.00
10901;DHT22;5503;53.208;10.392;2023-01-04T16:18:57;12.50;1.00
10901;DHT22;5503;53.208;10.392;2023-01-04T16:21:25;12.50;1.00
10901;DHT22;5503;53.208;10.392;2023-01-04T16:23:54;12.50;1.00
10901;DHT22;5503;53.208;10.392;2023-01-04T16:26:21;12.40;1.00
10901;DHT22;5503;53.208;10.392;2023-01-04T16:28:49;12.30;1.00
10901;DHT22;5503;53.208;10.392;2023-01-04T16:31:18;12.30;1.00
10901;DHT22;5503;53.208;10.392;2023-01-04T16:33:45;12.40;1.00
10901;DHT22;5503;53.208;10.392;2023-01-04T16:36:14;12.40;1.00
10901;DHT22;5503;53.208;10.392;2023-01-04T16:38:43;12.40;1.00